sensor_id;sensor_type;location;lat;lon;timestamp;pressure;altitude;pressure_sealevel;temperature;humidity
33625;BME280;19962;47.820;1.930;2023-01-30T00:00:03;101788.44;;;6.35;68.88
33625;BME280;19962;47.820;1.930;2023-01-30T00:02:30;101785.50;;;6.44;68.80
33625;BME280;19962;47.820;1.930;2023-01-30T00:04:56;101783.09;;;6.41;68.74
33625;BME280;19962;47.820;1.930;2023-01-30T00:07:22;101795.41;;;6.37;68.91
33625;BME280;19962;47.820;1.930;2023-01-30T00:09:49;101810.25;;;6.19;69.58
33625;BME280;19962;47.820;1.930;2023-01-30T00:12:15;101811.78;;;6.21;69.90
33625;BME280;19962;47.820;1.930;2023-01-30T00:14:41;101802.56;;;6.30;69.44
33625;BME280;19962;47.820;1.930;2023-01-30T00:17:07;101806.31;;;6.29;69.40
33625;BME280;19962;47.820;1.930;2023-01-30T00:19:33;101817.22;;;6.29;69.89
33625;BME280;19962;47.820;1.930;2023-01-30T00:21:59;101815.69;;;6.35;69.62
33625;BME280;19962;47.820;1.930;2023-01-30T00:24:25;101810.88;;;6.45;69.13
33625;BME280;19962;47.820;1.930;2023-01-30T00:26:51;101805.06;;;6.48;69.18
33625;BME280;19962;47.820;1.930;2023-01-30T00:29:17;101794.16;;;6.48;69.34
33625;BME280;19962;47.820;1.930;2023-01-30T00:31:43;101788.91;;;6.46;69.23
33625;BME280;19962;47.820;1.930;2023-01-30T00:34:09;101769.47;;;6.49;69.05
33625;BME280;19962;47.820;1.930;2023-01-30T00:36:35;101770.66;;;6.47;69.30
33625;BME280;19962;47.820;1.930;2023-01-30T00:39:01;101758.25;;;6.36;69.71
33625;BME280;19962;47.820;1.930;2023-01-30T00:41:28;101765.06;;;6.40;69.69
33625;BME280;19962;47.820;1.930;2023-01-30T00:44:14;101757.19;;;6.45;69.68
33625;BME280;19962;47.820;1.930;2023-01-30T00:46:58;101757.91;;;6.39;69.73
33625;BME280;19962;47.820;1.930;2023-01-30T00:49:30;101757.91;;;6.31;70.20
33625;BME280;19962;47.820;1.930;2023-01-30T00:51:56;101759.13;;;6.29;70.52
33625;BME280;19962;47.820;1.930;2023-01-30T00:54:23;101751.28;;;6.34;70.65
33625;BME280;19962;47.820;1.930;2023-01-30T00:56:49;101745.81;;;6.42;70.52
33625;BME280;19962;47.820;1.930;2023-01-30T00:59:15;101749.22;;;6.44;70.50
33625;BME280;19962;47.820;1.930;2023-01-30T01:01:41;101748.34;;;6.43;70.35
33625;BME280;19962;47.820;1.930;2023-01-30T01:04:07;101738.66;;;6.41;70.65
33625;BME280;19962;47.820;1.930;2023-01-30T01:06:35;101741.22;;;6.42;70.67
33625;BME280;19962;47.820;1.930;2023-01-30T01:09:02;101737.13;;;6.38;70.87
33625;BME280;19962;47.820;1.930;2023-01-30T01:11:28;101740.69;;;6.39;71.33
33625;BME280;19962;47.820;1.930;2023-01-30T01:13:56;101732.00;;;6.43;71.13
33625;BME280;19962;47.820;1.930;2023-01-30T01:16:24;101737.13;;;6.38;71.20
33625;BME280;19962;47.820;1.930;2023-01-30T01:18:51;101739.53;;;6.33;71.87
33625;BME280;19962;47.820;1.930;2023-01-30T01:21:18;101726.25;;;6.30;72.07
33625;BME280;19962;47.820;1.930;2023-01-30T01:23:48;101719.75;;;6.31;72.10
33625;BME280;19962;47.820;1.930;2023-01-30T01:26:14;101711.09;;;6.28;72.20
33625;BME280;19962;47.820;1.930;2023-01-30T01:28:40;101708.19;;;6.29;72.58
33625;BME280;19962;47.820;1.930;2023-01-30T01:31:14;101706.13;;;6.31;72.78
33625;BME280;19962;47.820;1.930;2023-01-30T01:33:40;101700.69;;;6.31;72.50
33625;BME280;19962;47.820;1.930;2023-01-30T01:36:07;101692.16;;;6.34;72.49
33625;BME280;19962;47.820;1.930;2023-01-30T01:38:33;101699.66;;;6.32;72.62
33625;BME280;19962;47.820;1.930;2023-01-30T01:41:00;101694.41;;;6.31;72.62
33625;BME280;19962;47.820;1.930;2023-01-30T01:43:35;101690.66;;;6.24;73.24
33625;BME280;19962;47.820;1.930;2023-01-30T01:46:09;101683.38;;;6.16;73.35
33625;BME280;19962;47.820;1.930;2023-01-30T01:48:57;101680.31;;;6.11;73.69
33625;BME280;19962;47.820;1.930;2023-01-30T01:51:32;101670.78;;;6.07;73.38
33625;BME280;19962;47.820;1.930;2023-01-30T01:54:12;101670.31;;;5.96;73.80
33625;BME280;19962;47.820;1.930;2023-01-30T01:56:43;101665.91;;;5.95;73.85
33625;BME280;19962;47.820;1.930;2023-01-30T02:01:42;101656.47;;;6.05;73.59
33625;BME280;19962;47.820;1.930;2023-01-30T02:04:09;101662.09;;;6.12;73.46
33625;BME280;19962;47.820;1.930;2023-01-30T02:06:38;101667.19;;;6.15;73.43
33625;BME280;19962;47.820;1.930;2023-01-30T02:09:08;101658.69;;;6.10;73.32
33625;BME280;19962;47.820;1.930;2023-01-30T02:11:51;101660.94;;;6.06;73.65
33625;BME280;19962;47.820;1.930;2023-01-30T02:14:20;101658.22;;;6.06;73.62
33625;BME280;19962;47.820;1.930;2023-01-30T02:16:47;101661.59;;;6.08;73.83
33625;BME280;19962;47.820;1.930;2023-01-30T02:19:33;101654.44;;;6.15;74.13
33625;BME280;19962;47.820;1.930;2023-01-30T02:22:29;101652.69;;;6.22;73.58
33625;BME280;19962;47.820;1.930;2023-01-30T02:27:56;101641.94;;;6.29;73.29
33625;BME280;19962;47.820;1.930;2023-01-30T02:33:38;101647.22;;;6.22;73.65
33625;BME280;19962;47.820;1.930;2023-01-30T02:44:54;101644.53;;;6.14;74.11
33625;BME280;19962;47.820;1.930;2023-01-30T02:50:26;101643.31;;;6.17;74.25
33625;BME280;19962;47.820;1.930;2023-01-30T02:52:54;101651.00;;;6.13;73.94
33625;BME280;19962;47.820;1.930;2023-01-30T02:55:26;101652.91;;;6.13;74.33
33625;BME280;19962;47.820;1.930;2023-01-30T02:57:52;101660.22;;;6.12;74.27
33625;BME280;19962;47.820;1.930;2023-01-30T03:01:10;101659.19;;;6.13;74.46
33625;BME280;19962;47.820;1.930;2023-01-30T03:09:09;101652.34;;;6.25;74.32
33625;BME280;19962;47.820;1.930;2023-01-30T03:12:06;101645.88;;;6.26;73.91
33625;BME280;19962;47.820;1.930;2023-01-30T03:14:47;101642.81;;;6.21;73.81
33625;BME280;19962;47.820;1.930;2023-01-30T03:17:18;101637.38;;;6.21;73.93
33625;BME280;19962;47.820;1.930;2023-01-30T03:19:46;101646.91;;;6.25;73.94
33625;BME280;19962;47.820;1.930;2023-01-30T03:22:12;101649.78;;;6.24;73.75
33625;BME280;19962;47.820;1.930;2023-01-30T03:24:38;101645.53;;;6.21;74.28
33625;BME280;19962;47.820;1.930;2023-01-30T03:27:10;101658.16;;;6.14;74.38
33625;BME280;19962;47.820;1.930;2023-01-30T03:29:36;101643.84;;;6.20;74.35
33625;BME280;19962;47.820;1.930;2023-01-30T03:32:03;101642.47;;;6.24;74.07
33625;BME280;19962;47.820;1.930;2023-01-30T03:34:29;101637.38;;;6.21;73.96
33625;BME280;19962;47.820;1.930;2023-01-30T03:36:55;101635.84;;;6.19;74.13
33625;BME280;19962;47.820;1.930;2023-01-30T03:39:23;101649.63;;;6.17;74.42
33625;BME280;19962;47.820;1.930;2023-01-30T03:41:50;101646.56;;;6.20;74.18
33625;BME280;19962;47.820;1.930;2023-01-30T03:44:16;101648.09;;;6.23;74.05
33625;BME280;19962;47.820;1.930;2023-01-30T03:46:42;101646.91;;;6.25;74.23
33625;BME280;19962;47.820;1.930;2023-01-30T03:49:08;101644.47;;;6.30;73.92
33625;BME280;19962;47.820;1.930;2023-01-30T03:51:34;101643.75;;;6.36;73.73
33625;BME280;19962;47.820;1.930;2023-01-30T03:54:00;101644.47;;;6.30;73.81
33625;BME280;19962;47.820;1.930;2023-01-30T03:56:26;101653.00;;;6.27;73.81
33625;BME280;19962;47.820;1.930;2023-01-30T03:58:52;101660.19;;;6.28;73.69
33625;BME280;19962;47.820;1.930;2023-01-30T04:01:19;101648.44;;;6.20;74.19
33625;BME280;19962;47.820;1.930;2023-01-30T04:03:45;101656.44;;;6.21;74.32
33625;BME280;19962;47.820;1.930;2023-01-30T04:06:11;101661.88;;;6.29;73.83
33625;BME280;19962;47.820;1.930;2023-01-30T04:08:37;101669.34;;;6.27;73.94
33625;BME280;19962;47.820;1.930;2023-01-30T04:11:04;101667.16;;;6.31;73.91
33625;BME280;19962;47.820;1.930;2023-01-30T04:13:30;101669.53;;;6.26;74.11
33625;BME280;19962;47.820;1.930;2023-01-30T04:16:21;101669.50;;;6.34;74.15
33625;BME280;19962;47.820;1.930;2023-01-30T04:18:47;101677.50;;;6.35;73.62
33625;BME280;19962;47.820;1.930;2023-01-30T04:21:14;101679.88;;;6.38;73.61
33625;BME280;19962;47.820;1.930;2023-01-30T04:23:41;101677.84;;;6.32;73.84
33625;BME280;19962;47.820;1.930;2023-01-30T04:26:08;101672.06;;;6.35;73.82
33625;BME280;19962;47.820;1.930;2023-01-30T04:28:34;101674.78;;;6.35;73.84
33625;BME280;19962;47.820;1.930;2023-01-30T04:31:01;101667.63;;;6.34;73.82
33625;BME280;19962;47.820;1.930;2023-01-30T04:33:27;101664.44;;;6.31;73.91
33625;BME280;19962;47.820;1.930;2023-01-30T04:35:58;101659.28;;;6.36;73.88
33625;BME280;19962;47.820;1.930;2023-01-30T04:38:26;101660.13;;;6.36;73.71
33625;BME280;19962;47.820;1.930;2023-01-30T04:40:54;101671.56;;;6.32;73.66
33625;BME280;19962;47.820;1.930;2023-01-30T04:43:21;101660.13;;;6.36;73.54
33625;BME280;19962;47.820;1.930;2023-01-30T04:45:49;101664.75;;;6.28;73.75
33625;BME280;19962;47.820;1.930;2023-01-30T04:48:16;101661.34;;;6.26;73.87
33625;BME280;19962;47.820;1.930;2023-01-30T04:50:44;101658.91;;;6.39;73.71
33625;BME280;19962;47.820;1.930;2023-01-30T04:53:12;101660.09;;;6.44;73.57
33625;BME280;19962;47.820;1.930;2023-01-30T04:55:38;101660.97;;;6.37;73.49
33625;BME280;19962;47.820;1.930;2023-01-30T04:58:04;101657.38;;;6.44;73.46
33625;BME280;19962;47.820;1.930;2023-01-30T05:00:30;101651.75;;;6.46;73.37
33625;BME280;19962;47.820;1.930;2023-01-30T05:02:57;101650.22;;;6.43;73.35
33625;BME280;19962;47.820;1.930;2023-01-30T05:05:24;101650.94;;;6.37;73.47
33625;BME280;19962;47.820;1.930;2023-01-30T05:07:50;101653.44;;;6.47;73.09
33625;BME280;19962;47.820;1.930;2023-01-30T05:10:17;101646.13;;;6.47;73.31
33625;BME280;19962;47.820;1.930;2023-01-30T05:12:43;101644.59;;;6.45;73.37
33625;BME280;19962;47.820;1.930;2023-01-30T05:15:11;101641.72;;;6.38;73.36
33625;BME280;19962;47.820;1.930;2023-01-30T05:17:38;101642.53;;;6.47;73.30
33625;BME280;19962;47.820;1.930;2023-01-30T05:20:06;101636.88;;;6.56;72.98
33625;BME280;19962;47.820;1.930;2023-01-30T05:22:34;101635.53;;;6.52;73.25
33625;BME280;19962;47.820;1.930;2023-01-30T05:25:00;101640.81;;;6.54;73.18
33625;BME280;19962;47.820;1.930;2023-01-30T05:27:26;101642.50;;;6.55;73.11
33625;BME280;19962;47.820;1.930;2023-01-30T05:29:52;101647.63;;;6.50;73.15
33625;BME280;19962;47.820;1.930;2023-01-30T05:32:19;101638.44;;;6.51;73.15
33625;BME280;19962;47.820;1.930;2023-01-30T05:34:47;101632.81;;;6.52;73.28
33625;BME280;19962;47.820;1.930;2023-01-30T05:37:13;101625.63;;;6.59;72.78
33625;BME280;19962;47.820;1.930;2023-01-30T05:39:39;101623.25;;;6.56;73.07
33625;BME280;19962;47.820;1.930;2023-01-30T05:42:05;101631.91;;;6.60;73.20
33625;BME280;19962;47.820;1.930;2023-01-30T05:44:31;101632.06;;;6.58;73.25
33625;BME280;19962;47.820;1.930;2023-01-30T05:46:58;101628.81;;;6.63;72.70
33625;BME280;19962;47.820;1.930;2023-01-30T05:49:24;101632.47;;;6.55;72.86
33625;BME280;19962;47.820;1.930;2023-01-30T05:51:50;101632.31;;;6.49;73.24
33625;BME280;19962;47.820;1.930;2023-01-30T05:54:16;101627.69;;;6.49;73.28
33625;BME280;19962;47.820;1.930;2023-01-30T05:56:42;101622.75;;;6.53;73.53
33625;BME280;19962;47.820;1.930;2023-01-30T05:59:10;101617.78;;;6.56;73.39
33625;BME280;19962;47.820;1.930;2023-01-30T06:01:37;101627.50;;;6.59;73.33
33625;BME280;19962;47.820;1.930;2023-01-30T06:04:03;101627.31;;;6.60;73.30
33625;BME280;19962;47.820;1.930;2023-01-30T06:06:29;101630.88;;;6.61;73.18
33625;BME280;19962;47.820;1.930;2023-01-30T06:08:56;101609.44;;;6.58;73.02
33625;BME280;19962;47.820;1.930;2023-01-30T06:11:23;101613.00;;;6.58;73.30
33625;BME280;19962;47.820;1.930;2023-01-30T06:13:49;101621.16;;;6.58;73.25
33625;BME280;19962;47.820;1.930;2023-01-30T06:16:16;101616.56;;;6.59;73.27
33625;BME280;19962;47.820;1.930;2023-01-30T06:18:43;101610.78;;;6.62;73.39
33625;BME280;19962;47.820;1.930;2023-01-30T06:21:12;101606.88;;;6.56;73.58
33625;BME280;19962;47.820;1.930;2023-01-30T06:23:40;101606.19;;;6.54;73.33
33625;BME280;19962;47.820;1.930;2023-01-30T06:26:06;101606.03;;;6.56;73.55
33625;BME280;19962;47.820;1.930;2023-01-30T06:28:32;101611.84;;;6.53;73.85
33625;BME280;19962;47.820;1.930;2023-01-30T06:30:59;101609.78;;;6.55;73.65
33625;BME280;19962;47.820;1.930;2023-01-30T06:33:25;101620.22;;;6.51;73.96
33625;BME280;19962;47.820;1.930;2023-01-30T06:35:51;101625.28;;;6.54;73.92
33625;BME280;19962;47.820;1.930;2023-01-30T06:38:18;101623.59;;;6.53;73.73
33625;BME280;19962;47.820;1.930;2023-01-30T06:40:47;101624.28;;;6.55;73.71
33625;BME280;19962;47.820;1.930;2023-01-30T06:43:13;101623.25;;;6.56;73.79
33625;BME280;19962;47.820;1.930;2023-01-30T06:45:40;101625.34;;;6.46;74.20
33625;BME280;19962;47.820;1.930;2023-01-30T06:48:06;101621.91;;;6.52;74.12
33625;BME280;19962;47.820;1.930;2023-01-30T06:50:33;101628.34;;;6.59;74.05
33625;BME280;19962;47.820;1.930;2023-01-30T06:53:02;101631.72;;;6.61;74.05
33625;BME280;19962;47.820;1.930;2023-01-30T06:55:28;101636.88;;;6.56;74.17
33625;BME280;19962;47.820;1.930;2023-01-30T06:58:12;101634.84;;;6.50;74.52
33625;BME280;19962;47.820;1.930;2023-01-30T07:00:40;101640.25;;;6.58;74.25
33625;BME280;19962;47.820;1.930;2023-01-30T07:03:11;101641.75;;;6.69;74.21
33625;BME280;19962;47.820;1.930;2023-01-30T07:05:42;101644.13;;;6.72;73.91
33625;BME280;19962;47.820;1.930;2023-01-30T07:08:08;101648.84;;;6.78;73.39
33625;BME280;19962;47.820;1.930;2023-01-30T07:10:35;101657.31;;;6.60;74.03
33625;BME280;19962;47.820;1.930;2023-01-30T07:13:02;101657.66;;;6.57;74.61
33625;BME280;19962;47.820;1.930;2023-01-30T07:15:28;101665.31;;;6.62;74.67
33625;BME280;19962;47.820;1.930;2023-01-30T07:17:54;101670.22;;;6.66;74.21
33625;BME280;19962;47.820;1.930;2023-01-30T07:20:21;101666.09;;;6.70;74.17
33625;BME280;19962;47.820;1.930;2023-01-30T07:22:52;101658.41;;;6.74;74.18
33625;BME280;19962;47.820;1.930;2023-01-30T07:25:19;101672.19;;;6.80;74.01
33625;BME280;19962;47.820;1.930;2023-01-30T07:28:01;101678.06;;;6.69;74.47
33625;BME280;19962;47.820;1.930;2023-01-30T07:30:29;101678.00;;;6.77;74.52
33625;BME280;19962;47.820;1.930;2023-01-30T07:32:57;101675.63;;;6.74;74.63
33625;BME280;19962;47.820;1.930;2023-01-30T07:35:25;101675.81;;;6.73;74.84
33625;BME280;19962;47.820;1.930;2023-01-30T07:37:52;101674.16;;;6.64;75.04
33625;BME280;19962;47.820;1.930;2023-01-30T07:40:19;101686.41;;;6.68;75.47
33625;BME280;19962;47.820;1.930;2023-01-30T07:43:03;101679.88;;;6.77;75.56
33625;BME280;19962;47.820;1.930;2023-01-30T07:45:41;101685.13;;;6.86;75.42
33625;BME280;19962;47.820;1.930;2023-01-30T07:48:09;101690.72;;;6.93;75.06
33625;BME280;19962;47.820;1.930;2023-01-30T07:50:36;101699.06;;;6.91;74.97
33625;BME280;19962;47.820;1.930;2023-01-30T07:53:04;101702.13;;;6.96;75.16
33625;BME280;19962;47.820;1.930;2023-01-30T07:55:30;101705.50;;;6.98;75.04
33625;BME280;19962;47.820;1.930;2023-01-30T07:57:57;101707.75;;;6.95;75.59
33625;BME280;19962;47.820;1.930;2023-01-30T08:00:23;101705.50;;;6.98;75.66
33625;BME280;19962;47.820;1.930;2023-01-30T08:02:49;101707.22;;;6.99;75.79
33625;BME280;19962;47.820;1.930;2023-01-30T08:05:15;101713.94;;;6.89;76.66
33625;BME280;19962;47.820;1.930;2023-01-30T08:07:41;101713.34;;;7.01;76.19
33625;BME280;19962;47.820;1.930;2023-01-30T08:10:08;101710.19;;;7.12;76.31
33625;BME280;19962;47.820;1.930;2023-01-30T08:12:34;101700.78;;;7.15;76.32
33625;BME280;19962;47.820;1.930;2023-01-30T08:15:00;101694.50;;;7.14;76.73
33625;BME280;19962;47.820;1.930;2023-01-30T08:17:27;101691.75;;;7.14;77.00
33625;BME280;19962;47.820;1.930;2023-01-30T08:19:53;101711.53;;;7.16;77.29
33625;BME280;19962;47.820;1.930;2023-01-30T08:22:19;101711.34;;;7.18;77.51
33625;BME280;19962;47.820;1.930;2023-01-30T08:24:45;101714.63;;;7.13;78.06
33625;BME280;19962;47.820;1.930;2023-01-30T08:27:11;101715.13;;;7.17;78.02
33625;BME280;19962;47.820;1.930;2023-01-30T08:29:37;101724.47;;;7.22;78.27
33625;BME280;19962;47.820;1.930;2023-01-30T08:32:03;101728.06;;;7.15;78.71
33625;BME280;19962;47.820;1.930;2023-01-30T08:34:29;101722.75;;;7.21;78.31
33625;BME280;19962;47.820;1.930;2023-01-30T08:36:55;101721.75;;;7.22;78.43
33625;BME280;19962;47.820;1.930;2023-01-30T08:39:22;101729.84;;;7.30;78.31
33625;BME280;19962;47.820;1.930;2023-01-30T08:41:48;101735.31;;;7.30;78.14
33625;BME280;19962;47.820;1.930;2023-01-30T08:44:14;101729.50;;;7.33;78.32
33625;BME280;19962;47.820;1.930;2023-01-30T08:46:40;101728.97;;;7.38;77.95
33625;BME280;19962;47.820;1.930;2023-01-30T08:49:06;101719.75;;;7.39;77.87
33625;BME280;19962;47.820;1.930;2023-01-30T08:51:32;101715.97;;;7.40;78.19
33625;BME280;19962;47.820;1.930;2023-01-30T08:53:58;101704.53;;;7.44;78.14
33625;BME280;19962;47.820;1.930;2023-01-30T08:56:24;101715.06;;;7.47;78.10
33625;BME280;19962;47.820;1.930;2023-01-30T08:58:51;101708.19;;;7.51;78.05
33625;BME280;19962;47.820;1.930;2023-01-30T09:01:17;101718.03;;;7.60;77.56
33625;BME280;19962;47.820;1.930;2023-01-30T09:03:43;101714.25;;;7.61;77.90
33625;BME280;19962;47.820;1.930;2023-01-30T09:06:09;101727.25;;;7.59;78.28
33625;BME280;19962;47.820;1.930;2023-01-30T09:08:35;101725.19;;;7.61;78.43
33625;BME280;19962;47.820;1.930;2023-01-30T09:11:03;101726.97;;;7.54;79.34
33625;BME280;19962;47.820;1.930;2023-01-30T09:13:30;101717.56;;;7.57;79.24
33625;BME280;19962;47.820;1.930;2023-01-30T09:15:57;101716.03;;;7.54;79.85
33625;BME280;19962;47.820;1.930;2023-01-30T09:18:24;101720.81;;;7.52;80.60
33625;BME280;19962;47.820;1.930;2023-01-30T09:20:50;101720.75;;;7.60;80.58
33625;BME280;19962;47.820;1.930;2023-01-30T09:23:16;101718.84;;;7.69;80.10
33625;BME280;19962;47.820;1.930;2023-01-30T09:25:46;101719.66;;;7.69;80.66
33625;BME280;19962;47.820;1.930;2023-01-30T09:28:12;101722.41;;;7.69;80.52
33625;BME280;19962;47.820;1.930;2023-01-30T09:30:38;101722.91;;;7.73;80.64
33625;BME280;19962;47.820;1.930;2023-01-30T09:33:04;101720.16;;;7.73;80.95
33625;BME280;19962;47.820;1.930;2023-01-30T09:35:30;101726.53;;;7.65;81.52
33625;BME280;19962;47.820;1.930;2023-01-30T09:37:56;101716.16;;;7.61;82.08
33625;BME280;19962;47.820;1.930;2023-01-30T09:40:27;101715.97;;;7.62;82.42
33625;BME280;19962;47.820;1.930;2023-01-30T09:56:12;101731.72;;;7.97;80.94
33625;BME280;19962;47.820;1.930;2023-01-30T09:58:43;101739.19;;;7.81;81.99
33625;BME280;19962;47.820;1.930;2023-01-30T10:04:22;101744.13;;;7.85;82.97
33625;BME280;19962;47.820;1.930;2023-01-30T10:10:14;101739.25;;;7.95;82.78
33625;BME280;19962;47.820;1.930;2023-01-30T10:20:59;101756.56;;;7.88;83.46
33625;BME280;19962;47.820;1.930;2023-01-30T10:26:22;101747.50;;;7.87;84.13
33625;BME280;19962;47.820;1.930;2023-01-30T10:29:10;101744.78;;;7.87;85.08
33625;BME280;19962;47.820;1.930;2023-01-30T10:31:53;101747.00;;;8.06;84.18
33625;BME280;19962;47.820;1.930;2023-01-30T10:34:26;101733.63;;;8.11;83.79
33625;BME280;19962;47.820;1.930;2023-01-30T10:37:02;101736.09;;;8.06;84.09
33625;BME280;19962;47.820;1.930;2023-01-30T10:39:35;101741.44;;;8.00;84.64
33625;BME280;19962;47.820;1.930;2023-01-30T10:42:35;101755.88;;;8.08;84.91
33625;BME280;19962;47.820;1.930;2023-01-30T10:45:16;101754.41;;;8.20;84.30
33625;BME280;19962;47.820;1.930;2023-01-30T10:50:20;101753.19;;;8.23;83.57
33625;BME280;19962;47.820;1.930;2023-01-30T10:53:08;101747.16;;;8.27;84.23
33625;BME280;19962;47.820;1.930;2023-01-30T10:56:11;101751.03;;;8.33;84.39
33625;BME280;19962;47.820;1.930;2023-01-30T10:59:13;101729.06;;;8.26;85.21
33625;BME280;19962;47.820;1.930;2023-01-30T11:01:44;101738.13;;;8.27;85.12
33625;BME280;19962;47.820;1.930;2023-01-30T11:04:29;101745.94;;;8.30;85.13
33625;BME280;19962;47.820;1.930;2023-01-30T11:06:58;101742.47;;;8.36;84.03
33625;BME280;19962;47.820;1.930;2023-01-30T11:09:47;101738.44;;;8.46;84.24
33625;BME280;19962;47.820;1.930;2023-01-30T11:12:13;101731.31;;;8.37;84.72
33625;BME280;19962;47.820;1.930;2023-01-30T11:15:01;101730.31;;;8.38;85.74
33625;BME280;19962;47.820;1.930;2023-01-30T11:17:37;101721.91;;;8.54;84.93
33625;BME280;19962;47.820;1.930;2023-01-30T11:20:25;101709.81;;;8.63;84.34
33625;BME280;19962;47.820;1.930;2023-01-30T11:23:06;101712.09;;;8.60;85.17
33625;BME280;19962;47.820;1.930;2023-01-30T11:25:48;101709.44;;;8.52;85.78
33625;BME280;19962;47.820;1.930;2023-01-30T11:28:14;101714.66;;;8.61;83.85
33625;BME280;19962;47.820;1.930;2023-01-30T11:30:42;101713.41;;;8.64;83.70
33625;BME280;19962;47.820;1.930;2023-01-30T11:33:14;101701.63;;;8.63;84.07
33625;BME280;19962;47.820;1.930;2023-01-30T11:35:58;101705.31;;;8.56;85.13
33625;BME280;19962;47.820;1.930;2023-01-30T11:43:33;101697.72;;;8.72;84.74
33625;BME280;19962;47.820;1.930;2023-01-30T11:46:00;101683.22;;;8.72;85.21
33625;BME280;19962;47.820;1.930;2023-01-30T11:48:29;101685.28;;;8.70;85.38
33625;BME280;19962;47.820;1.930;2023-01-30T11:51:02;101673.38;;;8.77;85.23
33625;BME280;19962;47.820;1.930;2023-01-30T11:56:21;101666.38;;;8.89;84.58
33625;BME280;19962;47.820;1.930;2023-01-30T11:58:55;101668.22;;;8.82;85.08
33625;BME280;19962;47.820;1.930;2023-01-30T12:01:28;101659.31;;;8.80;85.90
33625;BME280;19962;47.820;1.930;2023-01-30T12:03:57;101651.13;;;8.80;85.40
33625;BME280;19962;47.820;1.930;2023-01-30T12:06:39;101654.13;;;8.85;86.13
33625;BME280;19962;47.820;1.930;2023-01-30T12:09:06;101650.16;;;8.88;85.56
33625;BME280;19962;47.820;1.930;2023-01-30T12:11:51;101658.16;;;8.89;85.20
33625;BME280;19962;47.820;1.930;2023-01-30T12:14:37;101646.47;;;8.95;84.88
33625;BME280;19962;47.820;1.930;2023-01-30T12:17:26;101650.09;;;9.02;85.40
33625;BME280;19962;47.820;1.930;2023-01-30T12:25:37;101658.69;;;8.99;84.85
33625;BME280;19962;47.820;1.930;2023-01-30T12:33:47;101644.38;;;8.97;85.53
33625;BME280;19962;47.820;1.930;2023-01-30T12:47:36;101618.69;;;8.98;86.97
33625;BME280;19962;47.820;1.930;2023-01-30T12:50:19;101620.84;;;9.03;87.44
33625;BME280;19962;47.820;1.930;2023-01-30T12:55:35;101614.41;;;9.10;87.04
33625;BME280;19962;47.820;1.930;2023-01-30T13:06:23;101605.34;;;9.10;88.28
33625;BME280;19962;47.820;1.930;2023-01-30T13:17:19;101603.78;;;9.22;87.69
33625;BME280;19962;47.820;1.930;2023-01-30T13:28:27;101586.25;;;8.95;89.36
33625;BME280;19962;47.820;1.930;2023-01-30T13:30:54;101577.38;;;8.93;89.69
33625;BME280;19962;47.820;1.930;2023-01-30T13:33:40;101577.25;;;9.01;90.15
33625;BME280;19962;47.820;1.930;2023-01-30T13:36:14;101561.94;;;9.07;89.47
33625;BME280;19962;47.820;1.930;2023-01-30T13:39:02;101567.00;;;9.10;90.14
33625;BME280;19962;47.820;1.930;2023-01-30T13:41:37;101564.47;;;9.08;89.65
33625;BME280;19962;47.820;1.930;2023-01-30T13:44:17;101566.56;;;9.06;90.82
33625;BME280;19962;47.820;1.930;2023-01-30T13:46:47;101557.47;;;9.06;90.41
33625;BME280;19962;47.820;1.930;2023-01-30T13:49:45;101563.56;;;9.01;91.86
33625;BME280;19962;47.820;1.930;2023-01-30T13:52:30;101559.78;;;9.02;91.96
33625;BME280;19962;47.820;1.930;2023-01-30T13:55:24;101555.88;;;9.11;91.94
33625;BME280;19962;47.820;1.930;2023-01-30T13:58:28;101564.06;;;9.11;91.26
33625;BME280;19962;47.820;1.930;2023-01-30T14:00:55;101571.31;;;9.19;90.07
33625;BME280;19962;47.820;1.930;2023-01-30T14:08:47;101564.06;;;9.11;90.39
33625;BME280;19962;47.820;1.930;2023-01-30T14:11:40;101562.00;;;9.13;90.82
33625;BME280;19962;47.820;1.930;2023-01-30T14:14:27;101568.75;;;9.17;91.31
33625;BME280;19962;47.820;1.930;2023-01-30T14:16:56;101565.56;;;9.14;90.82
33625;BME280;19962;47.820;1.930;2023-01-30T14:19:35;101567.47;;;9.13;90.78
33625;BME280;19962;47.820;1.930;2023-01-30T14:22:50;101573.34;;;9.10;91.14
33625;BME280;19962;47.820;1.930;2023-01-30T14:38:24;101584.28;;;9.10;90.98
33625;BME280;19962;47.820;1.930;2023-01-30T14:51:35;101588.84;;;9.03;91.70
33625;BME280;19962;47.820;1.930;2023-01-30T14:57:14;101596.28;;;9.09;91.38
33625;BME280;19962;47.820;1.930;2023-01-30T15:04:41;101600.72;;;9.10;91.19
33625;BME280;19962;47.820;1.930;2023-01-30T15:07:13;101599.91;;;9.16;90.94
33625;BME280;19962;47.820;1.930;2023-01-30T15:09:57;101603.97;;;9.20;91.74
33625;BME280;19962;47.820;1.930;2023-01-30T15:23:19;101626.41;;;9.09;94.09
33625;BME280;19962;47.820;1.930;2023-01-30T15:32:00;101638.84;;;9.12;93.83
33625;BME280;19962;47.820;1.930;2023-01-30T15:34:32;101633.19;;;9.13;94.15
33625;BME280;19962;47.820;1.930;2023-01-30T15:37:01;101635.06;;;9.13;93.69
33625;BME280;19962;47.820;1.930;2023-01-30T15:39:27;101633.81;;;9.15;93.06
33625;BME280;19962;47.820;1.930;2023-01-30T15:41:59;101632.59;;;9.18;93.25
33625;BME280;19962;47.820;1.930;2023-01-30T15:44:34;101645.41;;;9.17;93.15
33625;BME280;19962;47.820;1.930;2023-01-30T15:50:08;101650.06;;;9.17;94.62
33625;BME280;19962;47.820;1.930;2023-01-30T15:52:44;101646.72;;;9.21;93.52
33625;BME280;19962;47.820;1.930;2023-01-30T15:57:47;101661.84;;;9.17;93.80
33625;BME280;19962;47.820;1.930;2023-01-30T16:00:48;101673.66;;;9.18;95.12
33625;BME280;19962;47.820;1.930;2023-01-30T16:03:20;101666.50;;;9.17;94.52
33625;BME280;19962;47.820;1.930;2023-01-30T16:05:53;101681.31;;;9.22;94.13
33625;BME280;19962;47.820;1.930;2023-01-30T16:08:27;101668.88;;;9.26;93.46
33625;BME280;19962;47.820;1.930;2023-01-30T16:10:54;101689.91;;;9.19;94.44
33625;BME280;19962;47.820;1.930;2023-01-30T16:13:21;101677.50;;;9.23;94.31
33625;BME280;19962;47.820;1.930;2023-01-30T16:18:28;101675.03;;;9.28;93.86